Nordholz Airport ETMN

Flugplatz Daten

Name: Nordholz Airport

Ident: ETMN

Lat: 53,7677002

Long: 8,658499718

Platzhöhe: 74 ft

IataCode: NDZ

City:

Metar

2021/10/20 11:20
ETMN 201120Z 23016KT 9999 BKN023 SCT046 BKN110 17/13 Q0998 WHT WHT TEMPO GRN

Taf

2019/09/03 05:32
TAF ETMN 030415Z 0305/0403 23010G20KT 9999 NSW SCT015 BKN030
TEMPO 0305/0314 26015G25KT 4500 SHRA SCT010 BKN015TCU
Gewünschte Webcam nicht vorhanden? Dann fügen Sie eine hinzu. Sie wird dann so schnell wie möglich freigeschaltet
Url: Title: